Time;durP1;ratioP1;P1;durP2;ratioP2;P2;SDS_P1;SDS_P2;PMS_P1;PMS_P2;Temp;Humidity;BMP_temperature;BMP_pressure;BME280_temperature;BME280_humidity;BME280_pressure;Samples;Min_cycle;Max_cycle;Signal;HPM_P1;HPM_P2
2024/01/28 00:02:17;;;;;;;5.63;2.13;;;9.00;99.90;;;;;;5067675;28;20168;-50
2024/01/28 00:04:43;;;;;;;7.40;2.28;;;9.00;99.90;;;;;;5067926;28;20037;-51
2024/01/28 00:07:08;;;;;;;8.77;2.72;;;9.00;99.90;;;;;;5067817;28;20036;-49
2024/01/28 00:09:34;;;;;;;12.80;2.03;;;9.10;99.90;;;;;;5067773;28;20060;-46
2024/01/28 00:11:59;;;;;;;6.93;2.92;;;9.10;99.90;;;;;;5067705;28;20036;-48
2024/01/28 00:14:26;;;;;;;5.80;1.65;;;9.10;99.90;;;;;;5067663;28;20049;-50
2024/01/28 00:16:51;;;;;;;4.32;2.15;;;9.20;99.90;;;;;;5067221;28;20323;-50
2024/01/28 00:19:17;;;;;;;6.25;2.45;;;9.20;99.90;;;;;;5067555;28;20059;-50
2024/01/28 00:21:42;;;;;;;5.35;1.70;;;9.20;99.90;;;;;;5067375;28;20040;-48
2024/01/28 00:24:08;;;;;;;7.53;2.25;;;9.20;99.90;;;;;;5066458;28;20032;-50
2024/01/28 00:26:38;;;;;;;5.00;1.80;;;9.20;99.90;;;;;;5067452;28;20037;-48
2024/01/28 00:29:04;;;;;;;4.40;1.60;;;9.20;99.90;;;;;;5067493;28;20100;-48
2024/01/28 00:31:29;;;;;;;3.97;2.03;;;9.20;99.90;;;;;;5067107;28;20336;-48
2024/01/28 00:33:55;;;;;;;4.03;2.13;;;9.20;99.90;;;;;;5067315;28;20079;-48
2024/01/28 00:36:21;;;;;;;8.55;3.10;;;9.20;99.90;;;;;;5067209;28;20020;-48
2024/01/28 00:38:46;;;;;;;7.70;3.22;;;9.20;99.90;;;;;;5067292;28;20075;-47
2024/01/28 00:41:26;;;;;;;5.35;2.80;;;9.20;99.90;;;;;;5067254;28;20429;-48
2024/01/28 00:43:52;;;;;;;6.15;1.73;;;9.20;99.90;;;;;;5066949;28;20071;-49
2024/01/28 00:46:20;;;;;;;6.45;2.38;;;9.20;99.90;;;;;;5066885;28;20030;-50
2024/01/28 00:48:46;;;;;;;7.25;2.42;;;9.20;99.90;;;;;;5066080;28;20074;-51
2024/01/28 00:51:12;;;;;;;3.67;1.70;;;9.20;99.90;;;;;;5066895;28;20060;-50
2024/01/28 00:53:38;;;;;;;4.65;1.95;;;9.20;99.90;;;;;;5066809;28;20096;-50
2024/01/28 00:56:04;;;;;;;5.75;2.40;;;9.10;99.90;;;;;;5066740;28;20033;-50
2024/01/28 00:58:29;;;;;;;6.80;2.08;;;9.20;99.90;;;;;;5066923;28;20179;-50
2024/01/28 01:00:55;;;;;;;5.75;1.58;;;9.10;99.90;;;;;;5066881;28;20294;-49
2024/01/28 01:03:21;;;;;;;3.55;2.03;;;9.10;99.90;;;;;;5066495;28;20032;-50
2024/01/28 01:05:47;;;;;;;4.18;2.40;;;9.20;99.90;;;;;;5066581;28;20084;-51
2024/01/28 01:08:12;;;;;;;6.53;1.85;;;9.20;99.90;;;;;;5066772;28;20336;-50
2024/01/28 01:10:38;;;;;;;6.05;1.58;;;9.20;99.90;;;;;;5066650;28;20051;-51
2024/01/28 01:13:04;;;;;;;6.97;1.95;;;9.30;99.90;;;;;;5066668;28;20283;-50
2024/01/28 01:15:29;;;;;;;2.85;1.33;;;9.30;99.90;;;;;;5065333;28;20214;-49
2024/01/28 01:17:58;;;;;;;3.25;1.40;;;9.30;99.90;;;;;;5065414;28;20033;-50
2024/01/28 01:20:24;;;;;;;2.45;1.27;;;9.30;99.90;;;;;;5066063;28;20032;-50
2024/01/28 01:22:50;;;;;;;7.65;2.10;;;9.30;99.90;;;;;;5066497;28;20036;-49
2024/01/28 01:25:15;;;;;;;4.80;2.05;;;9.30;99.90;;;;;;5066466;28;20025;-48
2024/01/28 01:27:41;;;;;;;4.18;1.70;;;9.40;99.90;;;;;;5066023;28;20031;-48
2024/01/28 01:30:08;;;;;;;4.68;1.40;;;9.30;99.90;;;;;;5066347;28;20100;-50
2024/01/28 01:32:35;;;;;;;5.07;1.73;;;9.40;99.90;;;;;;5066365;28;20033;-48
2024/01/28 01:35:01;;;;;;;7.10;1.95;;;9.40;99.90;;;;;;5066217;28;20091;-47
2024/01/28 01:37:27;;;;;;;5.47;1.88;;;9.40;99.90;;;;;;5066160;28;20037;-47
2024/01/28 01:39:53;;;;;;;4.75;2.47;;;9.40;99.90;;;;;;5066293;28;20028;-48
2024/01/28 01:42:18;;;;;;;2.60;1.73;;;9.40;99.90;;;;;;5066055;28;20039;-47
2024/01/28 01:44:44;;;;;;;3.47;1.60;;;9.40;99.90;;;;;;5066181;28;20091;-50
2024/01/28 01:47:09;;;;;;;4.32;1.60;;;9.40;99.90;;;;;;5064918;28;20036;-50
2024/01/28 01:49:35;;;;;;;5.28;2.70;;;9.40;99.90;;;;;;5065984;28;20028;-48
2024/01/28 01:52:01;;;;;;;2.70;1.67;;;9.40;99.90;;;;;;5065484;28;20059;-48
2024/01/28 01:54:27;;;;;;;4.18;1.98;;;9.40;99.90;;;;;;5064873;28;20035;-51
2024/01/28 01:56:53;;;;;;;4.20;1.95;;;9.40;99.90;;;;;;5065929;28;20044;-50
2024/01/28 01:59:20;;;;;;;6.47;2.30;;;9.40;99.90;;;;;;5064727;28;20195;-51
2024/01/28 02:01:46;;;;;;;5.72;1.90;;;9.40;99.90;;;;;;5065993;28;20035;-50
2024/01/28 02:04:12;;;;;;;4.65;2.10;;;9.40;99.90;;;;;;5065671;28;20175;-50
2024/01/28 02:06:38;;;;;;;3.58;1.40;;;9.40;99.90;;;;;;5065651;28;20336;-50
2024/01/28 02:09:05;;;;;;;2.80;1.85;;;9.50;99.90;;;;;;5065746;28;20025;-50
2024/01/28 02:11:31;;;;;;;5.40;2.13;;;9.40;99.90;;;;;;5065391;28;20035;-50
2024/01/28 02:13:56;;;;;;;4.65;2.17;;;9.40;99.90;;;;;;5047973;28;20028;-55
2024/01/28 02:16:24;;;;;;;7.05;1.80;;;9.50;99.90;;;;;;5064389;28;20116;-49
2024/01/28 02:18:50;;;;;;;3.30;1.30;;;9.40;99.90;;;;;;5065696;28;20063;-51
2024/01/28 02:21:15;;;;;;;6.32;2.00;;;9.50;99.90;;;;;;5065626;28;20044;-50
2024/01/28 02:23:41;;;;;;;5.10;2.50;;;9.50;99.90;;;;;;5064331;28;20143;-51
2024/01/28 02:26:07;;;;;;;3.92;2.10;;;9.50;99.90;;;;;;5067773;28;20017;-50
2024/01/28 02:28:32;;;;;;;2.58;2.08;;;9.50;99.90;;;;;;5069733;28;20063;-50
2024/01/28 02:30:58;;;;;;;2.55;1.73;;;9.50;99.90;;;;;;5069725;28;20025;-50
2024/01/28 02:33:23;;;;;;;5.25;1.92;;;9.50;99.90;;;;;;5069820;28;20028;-47
2024/01/28 02:35:49;;;;;;;6.53;2.30;;;9.50;99.90;;;;;;5069759;28;20195;-47
2024/01/28 02:38:15;;;;;;;5.90;1.80;;;9.50;99.90;;;;;;5069452;28;20029;-48
2024/01/28 02:40:40;;;;;;;3.10;1.63;;;9.50;99.90;;;;;;5069673;28;20048;-47
2024/01/28 02:43:07;;;;;;;3.40;2.17;;;9.50;99.90;;;;;;5068513;28;20037;-47
2024/01/28 02:45:33;;;;;;;4.63;2.47;;;9.50;99.90;;;;;;5069378;28;20168;-46
2024/01/28 02:47:58;;;;;;;6.20;2.10;;;9.50;99.90;;;;;;5068277;28;20039;-47
2024/01/28 02:50:24;;;;;;;3.10;1.42;;;9.40;99.90;;;;;;5069303;28;20142;-47
2024/01/28 02:52:49;;;;;;;4.43;2.15;;;9.40;99.90;;;;;;5069409;28;20032;-48
2024/01/28 02:55:15;;;;;;;2.15;1.30;;;9.50;99.90;;;;;;5069246;28;20039;-47
2024/01/28 02:57:41;;;;;;;5.60;2.10;;;9.40;99.90;;;;;;5069146;28;20053;-47
2024/01/28 03:00:07;;;;;;;3.15;1.50;;;9.40;99.90;;;;;;5068098;28;20343;-47
2024/01/28 03:02:33;;;;;;;2.42;1.70;;;9.40;99.90;;;;;;5069167;28;20096;-47
2024/01/28 03:04:58;;;;;;;3.45;1.92;;;9.40;99.90;;;;;;5069102;28;20095;-48
2024/01/28 03:07:24;;;;;;;3.88;2.30;;;9.50;99.90;;;;;;5068889;28;20091;-49
2024/01/28 03:09:49;;;;;;;2.90;2.03;;;9.50;99.90;;;;;;5069145;28;20032;-48
2024/01/28 03:12:15;;;;;;;6.10;1.73;;;9.60;99.90;;;;;;5068790;28;20043;-47
2024/01/28 03:14:41;;;;;;;4.07;2.30;;;9.60;99.90;;;;;;5068976;28;20033;-47
2024/01/28 03:17:06;;;;;;;5.68;2.47;;;9.60;99.90;;;;;;5068392;28;20053;-48
2024/01/28 03:19:32;;;;;;;4.15;2.40;;;9.60;99.90;;;;;;5069017;28;20187;-47
2024/01/28 03:21:58;;;;;;;5.15;2.88;;;9.70;99.90;;;;;;5068740;28;20029;-47
2024/01/28 03:24:23;;;;;;;5.07;2.30;;;9.70;99.90;;;;;;5068748;28;20178;-48
2024/01/28 03:26:49;;;;;;;5.35;2.38;;;9.70;99.90;;;;;;5068982;28;20036;-48
2024/01/28 03:29:15;;;;;;;3.88;2.00;;;9.70;99.90;;;;;;5068730;28;20048;-47
2024/01/28 03:31:40;;;;;;;6.03;2.97;;;9.70;99.90;;;;;;5067397;28;20039;-47
2024/01/28 03:34:07;;;;;;;3.17;1.83;;;9.70;99.90;;;;;;5068561;28;20305;-47
2024/01/28 03:36:32;;;;;;;3.20;2.10;;;9.80;99.90;;;;;;5068032;28;20033;-47
2024/01/28 03:38:58;;;;;;;4.70;3.08;;;9.80;99.90;;;;;;5068025;28;20021;-47
2024/01/28 03:41:24;;;;;;;6.68;2.70;;;9.80;99.90;;;;;;5068385;28;20074;-48
2024/01/28 03:43:49;;;;;;;8.50;3.60;;;9.80;99.90;;;;;;5068284;28;20354;-47
2024/01/28 03:46:15;;;;;;;6.57;3.15;;;9.70;99.90;;;;;;5068243;28;20025;-47
2024/01/28 03:48:41;;;;;;;8.27;3.45;;;9.80;99.90;;;;;;5068318;28;20283;-47
2024/01/28 03:51:06;;;;;;;4.55;3.30;;;9.80;99.90;;;;;;5067214;28;20028;-48
2024/01/28 03:53:33;;;;;;;5.90;3.35;;;9.80;99.90;;;;;;5067998;28;20053;-48
2024/01/28 03:55:58;;;;;;;6.30;3.08;;;9.80;99.90;;;;;;5067124;28;20048;-48
2024/01/28 03:58:24;;;;;;;6.53;3.28;;;9.80;99.90;;;;;;5067727;28;20291;-48
2024/01/28 04:00:50;;;;;;;4.97;2.35;;;9.80;99.90;;;;;;5067208;28;20033;-47
2024/01/28 04:03:16;;;;;;;6.07;3.38;;;9.80;99.90;;;;;;5066873;28;20032;-47
2024/01/28 04:05:43;;;;;;;4.13;2.45;;;9.80;99.90;;;;;;5067808;28;20335;-48
2024/01/28 04:08:09;;;;;;;5.30;2.80;;;9.90;99.90;;;;;;5067791;28;20028;-47
2024/01/28 04:10:35;;;;;;;8.98;3.10;;;9.90;99.90;;;;;;5067915;28;20043;-48
2024/01/28 04:13:01;;;;;;;8.85;3.63;;;9.90;99.90;;;;;;5068327;28;20037;-51
2024/01/28 04:15:26;;;;;;;5.75;3.20;;;9.90;99.90;;;;;;5066593;28;20025;-50
2024/01/28 04:17:52;;;;;;;5.15;3.40;;;9.90;99.90;;;;;;5067772;28;20037;-50
2024/01/28 04:20:18;;;;;;;8.75;3.67;;;9.90;99.90;;;;;;5068006;28;20043;-50
2024/01/28 04:22:43;;;;;;;3.42;2.60;;;9.90;99.90;;;;;;5067702;28;20028;-50
2024/01/28 04:25:09;;;;;;;7.32;3.17;;;9.90;99.90;;;;;;5067723;28;20221;-50
2024/01/28 04:27:35;;;;;;;7.07;3.17;;;9.90;99.90;;;;;;5067644;28;20041;-49
2024/01/28 04:30:00;;;;;;;7.03;3.10;;;9.90;99.90;;;;;;5049624;28;20078;-51
2024/01/28 04:32:26;;;;;;;6.97;3.25;;;10.00;99.90;;;;;;5066443;28;20024;-50
2024/01/28 04:34:52;;;;;;;5.88;3.53;;;10.00;99.90;;;;;;5067601;28;20029;-51
2024/01/28 04:37:17;;;;;;;9.52;3.95;;;10.00;99.90;;;;;;5067247;28;20278;-50
2024/01/28 04:39:44;;;;;;;8.07;3.20;;;9.90;99.90;;;;;;5066238;28;20306;-51
2024/01/28 04:42:10;;;;;;;7.82;3.08;;;9.90;99.90;;;;;;5067260;28;20037;-51
2024/01/28 04:44:35;;;;;;;9.85;3.63;;;9.90;99.90;;;;;;5067410;28;20282;-48
2024/01/28 04:47:02;;;;;;;7.07;3.47;;;10.00;99.90;;;;;;5067383;28;20095;-49
2024/01/28 04:49:27;;;;;;;9.45;3.65;;;9.90;99.90;;;;;;5066828;28;20186;-47
2024/01/28 04:51:53;;;;;;;9.20;3.95;;;10.00;99.90;;;;;;5067274;28;20115;-48
2024/01/28 04:54:19;;;;;;;8.38;3.80;;;10.00;99.90;;;;;;5066977;28;20043;-48
2024/01/28 04:56:45;;;;;;;9.32;3.97;;;10.00;99.90;;;;;;5067106;28;20032;-47
2024/01/28 04:59:10;;;;;;;6.93;3.47;;;10.00;99.90;;;;;;5067014;28;20187;-48
2024/01/28 05:01:36;;;;;;;7.68;3.63;;;10.00;99.90;;;;;;5067065;28;20191;-47
2024/01/28 05:04:03;;;;;;;7.68;3.80;;;10.00;99.90;;;;;;5067063;28;20270;-47
2024/01/28 05:06:34;;;;;;;7.78;3.60;;;10.00;99.90;;;;;;5066346;28;20024;-48
2024/01/28 05:09:10;;;;;;;12.20;4.45;;;9.90;99.90;;;;;;5066903;28;20025;-47
2024/01/28 05:11:36;;;;;;;8.18;3.67;;;9.90;99.90;;;;;;5066791;28;20048;-47
2024/01/28 05:14:02;;;;;;;7.82;3.35;;;9.90;99.90;;;;;;5066464;28;20025;-48
2024/01/28 05:16:28;;;;;;;9.38;3.65;;;9.90;99.90;;;;;;5066203;28;20053;-47
2024/01/28 05:18:53;;;;;;;8.68;3.63;;;9.90;99.90;;;;;;5066130;28;20037;-47
2024/01/28 05:21:19;;;;;;;7.13;3.35;;;9.90;99.90;;;;;;5066216;28;20071;-48
2024/01/28 05:23:48;;;;;;;8.27;4.45;;;9.90;99.90;;;;;;5066298;28;20036;-47
2024/01/28 05:26:14;;;;;;;5.38;3.08;;;9.90;99.90;;;;;;5065298;28;20043;-48
2024/01/28 05:28:39;;;;;;;6.05;2.47;;;9.90;99.90;;;;;;5066294;28;20080;-47
2024/01/28 05:31:06;;;;;;;9.00;4.10;;;9.90;99.90;;;;;;5066631;28;20075;-47
2024/01/28 05:33:34;;;;;;;10.90;3.95;;;9.90;99.90;;;;;;5048468;28;20048;-47
2024/01/28 05:36:00;;;;;;;15.07;3.83;;;9.90;99.90;;;;;;5066049;28;20025;-47
2024/01/28 05:38:26;;;;;;;7.82;3.30;;;9.90;99.90;;;;;;5066302;28;20025;-48
2024/01/28 05:40:52;;;;;;;4.30;3.67;;;9.90;99.90;;;;;;5066178;28;20202;-48
2024/01/28 05:43:17;;;;;;;11.02;4.18;;;9.90;99.90;;;;;;5065817;28;20084;-48
2024/01/28 05:45:43;;;;;;;12.98;4.72;;;9.90;99.90;;;;;;5066312;28;20033;-48
2024/01/28 05:48:09;;;;;;;11.35;4.45;;;9.90;99.90;;;;;;5066255;28;20285;-50
2024/01/28 05:50:34;;;;;;;9.57;4.57;;;9.90;99.90;;;;;;5065981;28;20027;-47
2024/01/28 05:53:00;;;;;;;10.80;5.07;;;9.90;99.90;;;;;;5065531;28;20225;-47
2024/01/28 05:55:26;;;;;;;10.35;4.03;;;9.90;99.90;;;;;;5065984;28;20040;-49
2024/01/28 05:57:53;;;;;;;8.15;4.03;;;9.90;99.90;;;;;;5065709;28;20084;-48
2024/01/28 06:00:19;;;;;;;7.20;3.08;;;9.90;99.90;;;;;;5064637;28;20063;-48
2024/01/28 06:02:45;;;;;;;7.80;3.80;;;10.00;99.90;;;;;;5066119;28;20040;-47
2024/01/28 06:05:11;;;;;;;12.48;4.32;;;9.90;99.90;;;;;;5066120;28;20025;-47
2024/01/28 06:07:37;;;;;;;8.07;3.63;;;9.90;99.90;;;;;;5065668;28;20279;-48
2024/01/28 06:10:03;;;;;;;7.55;3.83;;;10.00;99.90;;;;;;5065538;28;20032;-48
2024/01/28 06:12:28;;;;;;;9.48;4.13;;;10.00;99.90;;;;;;5065638;28;20056;-47
2024/01/28 06:14:57;;;;;;;10.38;4.38;;;10.00;99.90;;;;;;5065671;28;20124;-47
2024/01/28 06:17:22;;;;;;;10.15;4.38;;;10.00;99.90;;;;;;5065374;28;20100;-47
2024/01/28 06:19:48;;;;;;;9.00;4.70;;;10.00;99.90;;;;;;5065772;28;20059;-46
2024/01/28 06:22:15;;;;;;;10.25;4.25;;;10.00;99.90;;;;;;5065597;28;20028;-46
2024/01/28 06:24:42;;;;;;;13.68;5.80;;;10.00;99.90;;;;;;5066062;28;20033;-47
2024/01/28 06:27:09;;;;;;;12.90;4.55;;;10.00;99.90;;;;;;5065724;28;20091;-47
2024/01/28 06:29:35;;;;;;;11.40;4.70;;;10.00;99.90;;;;;;5065500;28;20029;-47
2024/01/28 06:32:00;;;;;;;16.75;5.05;;;10.00;99.90;;;;;;5065451;28;20033;-48
2024/01/28 06:34:26;;;;;;;16.65;5.07;;;10.00;99.90;;;;;;5064503;28;20021;-47
2024/01/28 06:36:52;;;;;;;9.80;4.63;;;10.00;99.90;;;;;;5065937;28;20056;-49
2024/01/28 06:39:17;;;;;;;9.40;4.18;;;10.00;99.90;;;;;;5065310;28;20087;-47
2024/01/28 06:41:43;;;;;;;13.07;5.00;;;10.00;99.90;;;;;;5065618;28;20270;-47
2024/01/28 06:44:09;;;;;;;15.35;5.18;;;10.00;99.90;;;;;;5064464;28;20024;-47
2024/01/28 06:46:35;;;;;;;15.77;4.80;;;10.00;99.90;;;;;;5064243;28;20058;-47
2024/01/28 06:49:01;;;;;;;16.23;4.70;;;10.00;99.90;;;;;;5065555;28;20020;-49
2024/01/28 06:51:28;;;;;;;9.68;4.90;;;10.00;99.90;;;;;;5065379;28;20092;-47
2024/01/28 06:53:53;;;;;;;10.32;4.88;;;10.00;99.90;;;;;;5064829;28;20033;-48
2024/01/28 06:56:19;;;;;;;15.00;5.05;;;10.00;99.90;;;;;;5065156;28;20067;-48
2024/01/28 06:58:45;;;;;;;10.63;5.68;;;10.00;99.90;;;;;;5064559;28;20029;-50
2024/01/28 07:01:11;;;;;;;9.10;4.13;;;10.00;99.90;;;;;;5065447;28;20222;-47
2024/01/28 07:03:36;;;;;;;11.80;3.83;;;10.00;99.90;;;;;;5065297;28;20037;-47
2024/01/28 07:06:03;;;;;;;10.35;4.30;;;10.00;99.90;;;;;;5065701;28;20047;-47
2024/01/28 07:08:28;;;;;;;11.18;4.47;;;10.00;99.90;;;;;;5065838;28;20171;-48
2024/01/28 07:10:54;;;;;;;13.25;5.05;;;10.00;99.90;;;;;;5065088;28;20298;-48
2024/01/28 07:13:20;;;;;;;17.98;5.32;;;10.00;99.90;;;;;;5067300;28;20025;-47
2024/01/28 07:15:45;;;;;;;8.82;4.43;;;10.00;99.90;;;;;;5068689;28;20368;-47
2024/01/28 07:18:11;;;;;;;11.38;4.65;;;10.00;99.90;;;;;;5068864;28;20040;-48
2024/01/28 07:20:37;;;;;;;8.43;3.97;;;10.00;99.90;;;;;;5068991;28;20037;-49
2024/01/28 07:23:04;;;;;;;11.50;4.45;;;10.00;99.90;;;;;;5051314;28;20057;-48
2024/01/28 07:25:30;;;;;;;9.23;4.25;;;10.00;99.90;;;;;;5067417;28;20067;-47
2024/01/28 07:27:56;;;;;;;14.05;4.22;;;10.00;99.90;;;;;;5068523;28;20056;-48
2024/01/28 07:30:22;;;;;;;7.63;3.80;;;9.90;99.90;;;;;;5068584;28;20037;-48
2024/01/28 07:32:48;;;;;;;10.93;4.65;;;10.00;99.90;;;;;;5068623;28;20021;-48
2024/01/28 07:35:15;;;;;;;10.35;4.28;;;10.00;99.90;;;;;;5068597;28;20036;-48
2024/01/28 07:37:41;;;;;;;11.00;4.00;;;9.90;99.90;;;;;;5068328;28;20032;-48
2024/01/28 07:40:08;;;;;;;13.27;4.57;;;10.00;99.90;;;;;;5068493;28;20050;-47
2024/01/28 07:42:34;;;;;;;13.85;5.38;;;10.00;99.90;;;;;;5068518;28;20032;-50
2024/01/28 07:44:59;;;;;;;16.42;4.72;;;10.00;99.90;;;;;;5067806;28;20115;-48
2024/01/28 07:47:25;;;;;;;8.70;3.80;;;10.00;99.90;;;;;;5067994;28;20147;-47
2024/01/28 07:49:51;;;;;;;9.85;4.13;;;10.00;99.90;;;;;;5068670;28;20029;-48
2024/01/28 07:52:17;;;;;;;10.75;4.32;;;10.00;99.90;;;;;;5067601;28;20045;-47
2024/01/28 07:54:42;;;;;;;10.52;4.70;;;10.00;99.90;;;;;;5068411;28;20020;-47
2024/01/28 07:57:08;;;;;;;10.55;4.63;;;9.90;99.90;;;;;;5068413;28;20108;-47
2024/01/28 07:59:34;;;;;;;10.73;4.45;;;9.90;99.90;;;;;;5067972;28;20029;-47
2024/01/28 08:01:59;;;;;;;13.88;6.05;;;9.90;99.90;;;;;;5068142;28;20029;-47
2024/01/28 08:04:25;;;;;;;8.90;4.93;;;10.00;99.90;;;;;;5068350;28;20072;-47
2024/01/28 08:06:50;;;;;;;8.45;4.97;;;9.90;99.90;;;;;;5068178;28;20282;-48
2024/01/28 08:09:17;;;;;;;12.13;5.55;;;9.90;99.90;;;;;;5067973;28;20175;-48
2024/01/28 08:11:43;;;;;;;14.30;5.80;;;9.90;99.90;;;;;;5068013;28;20103;-49
2024/01/28 08:14:09;;;;;;;12.20;5.43;;;9.90;99.90;;;;;;5067764;28;20198;-47
2024/01/28 08:16:35;;;;;;;15.65;6.20;;;9.90;99.90;;;;;;5067124;28;20061;-48
2024/01/28 08:19:04;;;;;;;14.70;5.32;;;9.90;99.90;;;;;;5066713;28;20040;-47
2024/01/28 08:21:30;;;;;;;4.35;2.83;;;9.90;99.90;;;;;;5068019;28;20033;-47
2024/01/28 08:23:55;;;;;;;13.27;5.50;;;9.90;99.90;;;;;;5067414;28;20025;-47
2024/01/28 08:26:21;;;;;;;10.73;5.13;;;10.00;99.90;;;;;;5067642;28;20065;-49
2024/01/28 08:28:47;;;;;;;12.15;4.88;;;10.00;99.90;;;;;;5067699;28;20036;-50
2024/01/28 08:31:12;;;;;;;11.20;5.20;;;10.00;99.90;;;;;;5067712;28;20178;-51
2024/01/28 08:33:38;;;;;;;7.40;4.13;;;10.00;99.90;;;;;;5067757;28;20167;-50
2024/01/28 08:36:04;;;;;;;8.98;5.00;;;10.00;99.90;;;;;;5067580;28;20048;-51
2024/01/28 08:38:31;;;;;;;11.23;5.38;;;10.00;99.90;;;;;;5067757;28;20126;-50
2024/01/28 08:40:57;;;;;;;7.13;3.78;;;10.00;99.90;;;;;;5067445;28;20028;-50
2024/01/28 08:43:22;;;;;;;11.32;5.07;;;10.00;99.90;;;;;;5067104;28;20079;-51
2024/01/28 08:45:48;;;;;;;8.20;4.07;;;10.00;99.90;;;;;;5066748;28;20025;-51
2024/01/28 08:48:13;;;;;;;12.13;4.80;;;10.00;99.90;;;;;;5067176;28;20029;-50
2024/01/28 08:50:39;;;;;;;10.95;4.97;;;10.00;99.90;;;;;;5067141;28;20040;-50
2024/01/28 08:53:05;;;;;;;12.77;5.80;;;10.00;99.90;;;;;;5066075;28;20021;-51
2024/01/28 08:55:31;;;;;;;12.10;4.88;;;10.00;99.90;;;;;;5067055;28;20267;-50
2024/01/28 08:57:56;;;;;;;14.93;5.72;;;10.00;99.90;;;;;;5067034;28;20206;-48
2024/01/28 09:00:22;;;;;;;6.60;4.20;;;10.00;99.90;;;;;;5066941;28;20174;-47
2024/01/28 09:02:48;;;;;;;10.55;5.13;;;9.90;99.90;;;;;;5067183;28;20165;-47
2024/01/28 09:05:13;;;;;;;8.25;4.05;;;10.00;99.90;;;;;;5066852;28;20044;-51
2024/01/28 09:07:41;;;;;;;11.45;4.65;;;9.90;99.90;;;;;;5066465;28;20035;-50
2024/01/28 09:10:07;;;;;;;9.70;4.18;;;9.90;99.90;;;;;;5066678;28;20025;-48
2024/01/28 09:12:33;;;;;;;13.85;5.63;;;10.00;99.90;;;;;;5066845;28;20111;-47
2024/01/28 09:14:58;;;;;;;9.68;5.82;;;10.00;99.90;;;;;;5066740;28;20043;-49
2024/01/28 09:17:24;;;;;;;9.55;4.85;;;10.00;99.90;;;;;;5066193;28;20048;-50
2024/01/28 09:19:50;;;;;;;11.75;4.35;;;10.00;99.90;;;;;;5066422;28;20040;-51
2024/01/28 09:22:15;;;;;;;8.25;4.20;;;10.00;99.90;;;;;;5066327;28;20278;-50
2024/01/28 09:24:41;;;;;;;14.70;4.88;;;10.00;99.90;;;;;;5065460;28;20033;-50
2024/01/28 09:27:07;;;;;;;7.78;3.97;;;10.00;99.90;;;;;;5066546;28;20033;-51
2024/01/28 09:29:33;;;;;;;9.32;5.63;;;10.00;99.90;;;;;;5066079;28;20104;-50
2024/01/28 09:31:59;;;;;;;11.98;4.25;;;10.00;99.90;;;;;;5066499;28;20025;-51
2024/01/28 09:34:25;;;;;;;8.05;4.13;;;9.90;99.90;;;;;;5066009;28;20043;-51
2024/01/28 09:36:50;;;;;;;7.70;4.22;;;10.00;99.90;;;;;;5065340;28;20025;-50
2024/01/28 09:39:17;;;;;;;10.02;3.53;;;10.00;99.90;;;;;;5065051;28;20037;-51
2024/01/28 09:41:49;;;;;;;12.10;5.07;;;10.00;99.90;;;;;;5066446;28;20095;-50
2024/01/28 09:44:15;;;;;;;15.82;4.60;;;9.90;99.90;;;;;;5066087;28;20331;-48
2024/01/28 09:46:41;;;;;;;11.15;4.72;;;10.00;99.90;;;;;;5066101;28;20068;-47
2024/01/28 09:49:11;;;;;;;11.18;4.95;;;10.10;99.90;;;;;;5065172;28;20075;-47
2024/01/28 09:51:37;;;;;;;10.75;5.05;;;10.10;99.90;;;;;;5065236;28;20021;-48
2024/01/28 09:54:03;;;;;;;11.43;5.90;;;10.10;99.90;;;;;;5065700;28;20049;-48
2024/01/28 09:56:29;;;;;;;10.15;5.18;;;10.20;99.90;;;;;;5065833;28;20190;-48
2024/01/28 09:58:55;;;;;;;11.00;5.30;;;10.30;99.90;;;;;;5065520;28;20166;-47
2024/01/28 10:01:21;;;;;;;9.70;4.50;;;10.30;99.90;;;;;;5064854;28;20040;-50
2024/01/28 10:03:46;;;;;;;10.95;4.15;;;10.30;99.90;;;;;;5066265;28;20036;-49
2024/01/28 10:06:12;;;;;;;8.75;4.45;;;10.30;99.90;;;;;;5065033;28;20032;-50
2024/01/28 10:08:38;;;;;;;8.05;3.88;;;10.30;99.90;;;;;;5065657;28;20040;-47
2024/01/28 10:11:03;;;;;;;9.98;4.53;;;10.40;99.90;;;;;;5064542;28;20041;-48
2024/01/28 10:13:29;;;;;;;10.93;4.50;;;10.40;99.90;;;;;;5047715;28;20021;-48
2024/01/28 10:15:58;;;;;;;8.05;4.28;;;10.40;99.90;;;;;;5065069;28;20037;-48
2024/01/28 10:18:24;;;;;;;9.25;4.43;;;10.40;99.90;;;;;;5064525;28;20056;-47
2024/01/28 10:20:50;;;;;;;8.32;4.28;;;10.40;99.90;;;;;;5064776;28;20021;-47
2024/01/28 10:23:16;;;;;;;11.43;5.65;;;10.40;99.90;;;;;;5065036;28;20225;-47
2024/01/28 10:25:43;;;;;;;10.30;4.90;;;10.50;99.90;;;;;;5064430;28;20190;-48
2024/01/28 10:28:08;;;;;;;8.02;4.35;;;10.50;99.90;;;;;;5065351;28;20028;-48
2024/01/28 10:30:34;;;;;;;8.75;4.85;;;10.60;99.90;;;;;;5066028;28;20080;-48
2024/01/28 10:33:00;;;;;;;8.88;5.25;;;10.70;99.90;;;;;;5047954;28;20310;-48
2024/01/28 10:35:25;;;;;;;10.75;5.35;;;10.60;99.90;;;;;;5065500;28;20183;-48
2024/01/28 10:37:53;;;;;;;9.30;4.45;;;10.70;99.90;;;;;;5065567;28;20104;-51
2024/01/28 10:40:18;;;;;;;9.90;4.40;;;10.70;99.90;;;;;;5064326;28;20037;-49
2024/01/28 10:42:44;;;;;;;7.68;4.78;;;10.70;99.90;;;;;;5064323;28;20174;-48
2024/01/28 10:45:10;;;;;;;10.38;5.00;;;10.70;99.90;;;;;;5064137;28;20033;-48
2024/01/28 10:47:38;;;;;;;13.68;5.32;;;10.70;99.90;;;;;;5066835;28;20337;-49
2024/01/28 10:50:08;;;;;;;9.57;6.22;;;10.80;99.90;;;;;;5068874;28;20021;-49
2024/01/28 10:52:37;;;;;;;7.78;4.57;;;10.80;99.90;;;;;;5068247;28;20330;-50
2024/01/28 10:55:04;;;;;;;9.77;5.25;;;10.80;99.90;;;;;;5051728;28;20057;-49
2024/01/28 10:57:31;;;;;;;10.63;5.15;;;10.80;99.90;;;;;;5068038;28;20032;-50
2024/01/28 10:59:59;;;;;;;11.40;4.72;;;10.80;99.90;;;;;;5068925;28;20160;-49
2024/01/28 11:02:24;;;;;;;11.13;5.50;;;10.90;99.90;;;;;;5068942;28;20088;-48
2024/01/28 11:04:50;;;;;;;10.05;5.13;;;10.90;99.90;;;;;;5051550;28;20052;-51
2024/01/28 11:07:19;;;;;;;13.55;5.40;;;10.80;99.90;;;;;;5051445;28;20033;-47
2024/01/28 11:09:46;;;;;;;11.38;5.93;;;10.80;99.90;;;;;;5067931;28;20041;-48
2024/01/28 11:12:12;;;;;;;12.05;5.65;;;10.90;99.90;;;;;;5068735;28;20336;-50
2024/01/28 11:14:38;;;;;;;8.50;5.38;;;10.80;99.90;;;;;;5067683;28;20026;-48
2024/01/28 11:17:04;;;;;;;9.18;5.40;;;10.80;99.90;;;;;;5067491;28;20045;-49
2024/01/28 11:19:29;;;;;;;11.27;5.88;;;10.90;99.90;;;;;;5068582;28;20190;-48
2024/01/28 11:21:58;;;;;;;13.18;5.30;;;10.90;99.90;;;;;;5068946;28;20092;-48
2024/01/28 11:24:24;;;;;;;10.85;5.65;;;10.90;99.90;;;;;;5068679;28;20163;-48
2024/01/28 11:26:50;;;;;;;9.13;5.00;;;11.00;99.90;;;;;;5067302;28;20020;-49
2024/01/28 11:29:16;;;;;;;13.13;5.93;;;11.00;99.90;;;;;;5050775;28;20326;-50
2024/01/28 11:31:42;;;;;;;14.63;7.32;;;11.10;99.90;;;;;;5068150;28;20086;-49
2024/01/28 11:34:21;;;;;;;12.63;7.68;;;11.10;99.90;;;;;;5067456;28;20070;-48
2024/01/28 11:36:54;;;;;;;12.48;6.40;;;11.10;99.90;;;;;;5068737;28;20231;-49
2024/01/28 11:39:34;;;;;;;11.95;5.70;;;11.20;99.90;;;;;;5068248;28;20325;-50
2024/01/28 11:42:01;;;;;;;8.85;4.75;;;11.20;99.90;;;;;;5068570;28;20032;-49
2024/01/28 11:44:27;;;;;;;11.20;6.28;;;11.20;99.90;;;;;;5067723;28;20017;-49
2024/01/28 11:46:52;;;;;;;11.50;5.65;;;11.30;99.90;;;;;;5067136;28;20227;-50
2024/01/28 11:49:18;;;;;;;13.93;6.85;;;11.20;99.90;;;;;;5050261;28;20037;-46
2024/01/28 11:51:44;;;;;;;11.48;6.50;;;11.30;99.90;;;;;;5068226;28;20094;-49
2024/01/28 11:54:09;;;;;;;6.55;4.75;;;11.20;99.90;;;;;;5068082;28;20164;-49
2024/01/28 11:56:35;;;;;;;14.48;5.65;;;11.10;99.90;;;;;;5068367;28;20048;-47
2024/01/28 11:59:02;;;;;;;9.85;4.88;;;11.20;99.90;;;;;;5067216;28;20021;-47
2024/01/28 12:01:27;;;;;;;9.45;5.20;;;11.40;99.90;;;;;;5066829;28;20025;-49
2024/01/28 12:03:56;;;;;;;10.07;5.15;;;11.80;99.90;;;;;;5067609;28;20172;-46
2024/01/28 12:06:23;;;;;;;12.13;4.85;;;12.20;99.90;;;;;;5067066;28;20017;-47
2024/01/28 12:08:49;;;;;;;10.57;4.80;;;12.50;99.90;;;;;;5066462;28;20033;-48
2024/01/28 12:11:21;;;;;;;14.27;5.40;;;12.40;99.90;;;;;;5067120;28;20037;-48
2024/01/28 12:13:48;;;;;;;12.27;5.63;;;12.40;99.90;;;;;;5067278;28;20171;-50
2024/01/28 12:16:16;;;;;;;9.65;4.75;;;12.50;99.90;;;;;;5067135;28;20044;-50
2024/01/28 12:18:42;;;;;;;15.30;5.90;;;12.60;99.90;;;;;;5067343;28;20037;-50
2024/01/28 12:21:23;;;;;;;14.70;8.52;;;12.90;99.90;;;;;;5067439;28;20039;-47
2024/01/28 12:23:58;;;;;;;18.77;8.95;;;13.20;99.90;;;;;;5067253;28;20075;-48
2024/01/28 12:26:27;;;;;;;36.95;17.83;;;13.10;99.90;;;;;;5067562;28;20052;-47
2024/01/28 12:28:53;;;;;;;13.73;6.65;;;13.40;99.90;;;;;;5067223;28;20029;-47
2024/01/28 12:31:19;;;;;;;30.23;17.75;;;13.40;99.90;;;;;;5067282;28;20025;-47
2024/01/28 12:33:45;;;;;;;16.95;11.02;;;13.10;99.90;;;;;;5066158;28;20029;-49
2024/01/28 12:36:11;;;;;;;8.10;4.53;;;13.50;99.90;;;;;;5067256;28;20051;-50
2024/01/28 12:38:38;;;;;;;14.30;5.28;;;13.60;99.90;;;;;;5067066;28;20029;-48
2024/01/28 12:41:04;;;;;;;8.25;5.00;;;13.00;99.90;;;;;;5066142;28;20020;-50
2024/01/28 12:43:31;;;;;;;10.15;5.35;;;12.40;99.90;;;;;;5067232;28;20071;-50